Time;durP1;ratioP1;P1;durP2;ratioP2;P2;SDS_P1;SDS_P2;PMS_P1;PMS_P2;Temp;Humidity;BMP_temperature;BMP_pressure;BME280_temperature;BME280_humidity;BME280_pressure;Samples;Min_cycle;Max_cycle;Signal;HPM_P1;HPM_P2
2023/09/17 00:00:44;;;;;;;29.15;9.73;;;15.20;99.90;;;;;;5055204;28;20024;-77
2023/09/17 00:03:10;;;;;;;23.00;10.27;;;15.20;99.90;;;;;;5090833;28;20122;-77
2023/09/17 00:05:36;;;;;;;26.15;11.20;;;15.20;99.90;;;;;;5090028;28;20502;-77
2023/09/17 00:08:03;;;;;;;32.47;11.63;;;15.20;99.90;;;;;;5090176;28;20058;-76
2023/09/17 00:10:30;;;;;;;28.20;11.32;;;15.20;99.90;;;;;;5090278;28;20055;-77
2023/09/17 00:12:55;;;;;;;31.20;14.80;;;15.10;99.90;;;;;;5090740;28;20481;-77
2023/09/17 00:15:23;;;;;;;30.45;15.57;;;15.20;99.90;;;;;;5089786;28;20031;-77
2023/09/17 00:17:49;;;;;;;30.83;16.98;;;15.20;99.90;;;;;;5090010;28;20537;-77
2023/09/17 00:20:15;;;;;;;33.35;17.38;;;15.10;99.90;;;;;;5090071;28;20020;-76
2023/09/17 00:22:41;;;;;;;29.98;16.95;;;15.10;99.90;;;;;;5089837;28;20085;-77
2023/09/17 00:25:07;;;;;;;34.25;17.35;;;15.10;99.90;;;;;;5090522;28;20020;-76
2023/09/17 00:27:33;;;;;;;34.53;18.75;;;15.10;99.90;;;;;;5089497;28;20036;-76
2023/09/17 00:29:59;;;;;;;33.47;19.70;;;15.10;99.90;;;;;;5090308;28;20107;-77
2023/09/17 00:32:25;;;;;;;41.95;19.55;;;15.00;99.90;;;;;;5089623;28;20024;-78
2023/09/17 00:34:51;;;;;;;35.92;20.33;;;15.10;99.90;;;;;;5090250;28;20020;-77
2023/09/17 00:37:18;;;;;;;40.83;20.90;;;15.00;99.90;;;;;;5090118;28;20035;-77
2023/09/17 00:39:44;;;;;;;36.95;20.55;;;15.00;99.90;;;;;;5089669;28;20063;-77
2023/09/17 00:42:10;;;;;;;40.08;20.10;;;15.00;99.90;;;;;;5090395;28;20071;-77
2023/09/17 00:44:35;;;;;;;39.53;20.48;;;15.00;99.90;;;;;;5072444;28;20097;-76
2023/09/17 00:47:04;;;;;;;32.63;19.08;;;15.00;99.90;;;;;;5093556;28;20071;-76
2023/09/17 00:49:31;;;;;;;33.25;18.15;;;15.00;99.90;;;;;;5092737;28;20054;-77
2023/09/17 00:51:58;;;;;;;31.58;18.60;;;15.00;99.90;;;;;;5093927;28;20095;-76
2023/09/17 00:54:26;;;;;;;33.70;18.10;;;15.00;99.90;;;;;;5093168;28;20024;-77
2023/09/17 00:56:52;;;;;;;40.13;18.90;;;15.00;99.90;;;;;;5093605;28;20046;-77
2023/09/17 00:59:19;;;;;;;28.35;17.08;;;15.00;99.90;;;;;;5093544;28;20028;-77
2023/09/17 01:01:45;;;;;;;30.98;19.00;;;15.00;99.90;;;;;;5093240;28;20399;-75
2023/09/17 01:04:12;;;;;;;34.03;20.08;;;14.90;99.90;;;;;;5093831;28;20060;-76
2023/09/17 01:06:40;;;;;;;32.38;19.77;;;15.00;99.90;;;;;;5093116;28;20115;-76
2023/09/17 01:09:07;;;;;;;34.25;19.73;;;15.00;99.90;;;;;;5093328;28;20043;-76
2023/09/17 01:11:35;;;;;;;33.65;19.17;;;14.90;99.90;;;;;;5093210;28;20486;-77
2023/09/17 01:14:15;;;;;;;33.50;18.05;;;15.00;99.90;;;;;;5075306;28;20037;-77
2023/09/17 01:16:47;;;;;;;31.38;19.20;;;15.00;99.90;;;;;;5093119;28;20036;-77
2023/09/17 01:19:33;;;;;;;30.63;17.48;;;15.00;99.90;;;;;;5093272;28;20566;-77
2023/09/17 01:22:07;;;;;;;22.60;15.73;;;15.00;99.90;;;;;;5093363;28;20028;-76
2023/09/17 01:24:53;;;;;;;28.10;15.68;;;15.00;99.90;;;;;;5092926;28;20028;-77
2023/09/17 01:27:20;;;;;;;25.08;14.63;;;15.00;99.90;;;;;;5075297;28;20310;-77
2023/09/17 01:29:46;;;;;;;20.48;13.23;;;15.00;99.90;;;;;;5092847;28;20056;-76
2023/09/17 01:32:14;;;;;;;15.35;11.45;;;15.00;99.90;;;;;;5093336;28;20035;-76
2023/09/17 01:34:42;;;;;;;20.33;12.00;;;15.00;99.90;;;;;;5092633;28;20077;-76
2023/09/17 01:37:17;;;;;;;19.90;12.32;;;15.00;99.90;;;;;;5093055;28;20043;-76
2023/09/17 01:40:03;;;;;;;15.93;10.73;;;15.00;99.90;;;;;;5092546;28;20024;-76
2023/09/17 01:42:29;;;;;;;13.93;10.65;;;15.00;99.90;;;;;;5092839;28;20038;-77
2023/09/17 01:44:58;;;;;;;15.70;10.45;;;15.00;99.90;;;;;;5093386;28;20024;-76
2023/09/17 01:47:27;;;;;;;15.52;10.60;;;15.00;99.90;;;;;;5094076;28;20059;-76
2023/09/17 01:49:57;;;;;;;15.65;10.02;;;15.00;99.90;;;;;;5095326;28;20551;-76
2023/09/17 01:52:26;;;;;;;13.57;10.50;;;14.90;99.90;;;;;;5096023;28;20080;-76
2023/09/17 01:54:55;;;;;;;17.52;10.95;;;15.00;99.90;;;;;;5096379;28;20024;-76
2023/09/17 01:57:20;;;;;;;16.08;9.75;;;14.90;99.90;;;;;;5095814;28;20028;-77
2023/09/17 01:59:46;;;;;;;13.95;9.00;;;15.00;99.90;;;;;;5094313;28;20028;-77
2023/09/17 02:02:12;;;;;;;13.45;9.38;;;15.00;99.90;;;;;;5093237;28;20477;-77
2023/09/17 02:04:37;;;;;;;18.73;10.85;;;14.90;99.90;;;;;;5092543;28;20121;-76
2023/09/17 02:07:04;;;;;;;17.05;10.77;;;14.90;99.90;;;;;;5092383;28;20028;-76
2023/09/17 02:09:29;;;;;;;20.95;11.18;;;15.00;99.90;;;;;;5091955;28;20082;-78
2023/09/17 02:11:55;;;;;;;17.52;11.73;;;14.90;99.90;;;;;;5074714;28;20071;-76
2023/09/17 02:14:21;;;;;;;17.60;12.90;;;14.90;99.90;;;;;;5092506;28;20024;-76
2023/09/17 02:16:46;;;;;;;23.13;13.88;;;15.00;99.90;;;;;;5091865;28;20063;-77
2023/09/17 02:19:12;;;;;;;22.65;15.25;;;14.90;99.90;;;;;;5091770;28;20508;-77
2023/09/17 02:21:38;;;;;;;20.48;14.15;;;14.90;99.90;;;;;;5091271;28;20024;-76
2023/09/17 02:24:04;;;;;;;25.05;14.50;;;14.90;99.90;;;;;;5092151;28;20028;-76
2023/09/17 02:26:29;;;;;;;29.42;14.48;;;14.90;99.90;;;;;;5091900;28;20038;-78
2023/09/17 02:28:56;;;;;;;26.33;15.65;;;14.90;99.90;;;;;;5074277;28;20079;-76
2023/09/17 02:31:21;;;;;;;26.92;16.35;;;14.90;99.90;;;;;;5092316;28;20063;-77
2023/09/17 02:33:48;;;;;;;27.10;16.15;;;14.90;99.90;;;;;;5091465;28;20168;-77
2023/09/17 02:36:14;;;;;;;27.40;16.75;;;14.90;99.90;;;;;;5092175;28;20028;-76
2023/09/17 02:38:43;;;;;;;30.50;17.65;;;14.90;99.90;;;;;;5091551;28;20660;-77
2023/09/17 02:41:09;;;;;;;39.40;19.77;;;14.90;99.90;;;;;;5073809;28;20036;-76
2023/09/17 02:43:36;;;;;;;32.65;18.95;;;14.90;99.90;;;;;;5091587;28;20152;-78
2023/09/17 02:46:03;;;;;;;40.08;20.00;;;14.90;99.90;;;;;;5091725;28;20499;-77
2023/09/17 02:48:32;;;;;;;39.45;20.92;;;14.90;99.90;;;;;;5092137;28;20089;-84
2023/09/17 02:50:58;;;;;;;39.95;21.73;;;14.90;99.90;;;;;;5092070;28;20031;-80
2023/09/17 02:53:24;;;;;;;50.28;22.52;;;15.00;99.90;;;;;;5091857;28;20047;-79
2023/09/17 02:55:49;;;;;;;37.08;22.23;;;14.90;99.90;;;;;;5091462;28;20048;-77
2023/09/17 02:58:15;;;;;;;45.67;24.50;;;14.80;99.90;;;;;;5091673;28;20097;-77
2023/09/17 03:00:43;;;;;;;42.25;23.17;;;14.90;99.90;;;;;;5072872;28;20036;-77
2023/09/17 03:03:08;;;;;;;48.58;24.95;;;14.90;99.90;;;;;;5091661;28;20032;-77
2023/09/17 03:05:34;;;;;;;42.83;23.88;;;14.90;99.90;;;;;;5090843;28;20496;-78
2023/09/17 03:08:00;;;;;;;40.97;23.58;;;14.90;99.90;;;;;;5072941;28;20032;-76
2023/09/17 03:10:26;;;;;;;43.60;23.25;;;14.90;99.90;;;;;;5091195;28;20035;-75
2023/09/17 03:12:52;;;;;;;44.13;22.35;;;15.00;99.90;;;;;;5090580;28;20026;-75
2023/09/17 03:15:18;;;;;;;36.90;21.13;;;15.00;99.90;;;;;;5091395;28;20103;-77
2023/09/17 03:17:44;;;;;;;35.30;21.55;;;15.00;99.90;;;;;;5090551;28;20085;-77
2023/09/17 03:20:18;;;;;;;46.83;24.05;;;15.00;99.90;;;;;;5091188;28;20380;-82
2023/09/17 03:22:44;;;;;;;48.65;24.33;;;15.00;99.90;;;;;;5091029;28;20111;-81
2023/09/17 03:25:14;;;;;;;45.20;24.40;;;15.00;99.90;;;;;;5091300;28;20107;-78
2023/09/17 03:27:43;;;;;;;49.38;25.05;;;15.00;99.90;;;;;;5090188;28;20085;-77
2023/09/17 03:30:09;;;;;;;51.60;24.17;;;14.90;99.90;;;;;;5090960;28;20036;-77
2023/09/17 03:32:35;;;;;;;56.88;26.00;;;15.10;99.90;;;;;;5090390;28;20477;-76
2023/09/17 03:35:01;;;;;;;43.45;24.52;;;15.00;99.90;;;;;;5091255;28;20066;-77
2023/09/17 03:37:27;;;;;;;43.95;25.02;;;15.00;99.90;;;;;;5090928;28;20032;-77
2023/09/17 03:40:14;;;;;;;47.50;24.35;;;15.00;99.90;;;;;;5090340;28;20113;-77
2023/09/17 03:42:41;;;;;;;37.92;22.77;;;15.00;99.90;;;;;;5090143;28;20036;-78
2023/09/17 03:45:12;;;;;;;33.60;19.98;;;15.00;99.90;;;;;;5091479;28;20040;-82
2023/09/17 03:47:41;;;;;;;40.13;21.70;;;15.00;99.90;;;;;;5090341;28;20050;-83
2023/09/17 03:50:14;;;;;;;28.90;19.27;;;15.00;99.90;;;;;;5090537;28;20480;-81
2023/09/17 03:52:45;;;;;;;31.85;19.73;;;15.00;99.90;;;;;;5090256;28;20051;-78
2023/09/17 03:55:12;;;;;;;34.03;19.83;;;15.00;99.90;;;;;;5090869;28;20024;-77
2023/09/17 03:57:38;;;;;;;32.47;19.20;;;15.00;99.90;;;;;;5089818;28;20465;-77
2023/09/17 04:00:10;;;;;;;28.98;17.73;;;15.00;99.90;;;;;;5090927;28;20099;-79
2023/09/17 04:02:36;;;;;;;26.45;17.25;;;15.00;99.90;;;;;;5090386;28;20106;-79
2023/09/17 04:05:11;;;;;;;25.92;16.83;;;15.00;99.90;;;;;;5091184;28;20107;-77
2023/09/17 04:07:37;;;;;;;25.92;16.05;;;15.00;99.90;;;;;;5090043;28;20423;-78
2023/09/17 04:10:06;;;;;;;25.52;15.85;;;15.10;99.90;;;;;;5090853;28;20032;-77
2023/09/17 04:12:35;;;;;;;22.88;15.82;;;15.00;99.90;;;;;;5090636;28;20112;-77
2023/09/17 04:15:09;;;;;;;19.25;13.90;;;15.00;99.90;;;;;;5090998;28;20020;-77
2023/09/17 04:17:34;;;;;;;26.67;14.60;;;15.00;99.90;;;;;;5090490;28;20032;-77
2023/09/17 04:20:00;;;;;;;27.00;16.50;;;15.10;99.90;;;;;;5092236;28;20028;-76
2023/09/17 04:22:26;;;;;;;23.98;14.82;;;15.00;99.90;;;;;;5075988;28;20433;-76
2023/09/17 04:24:52;;;;;;;22.08;14.52;;;15.10;99.90;;;;;;5094445;28;20084;-76
2023/09/17 04:27:18;;;;;;;21.50;12.52;;;15.00;99.90;;;;;;5094657;28;20028;-76
2023/09/17 04:29:43;;;;;;;21.35;12.75;;;15.00;99.90;;;;;;5075670;28;20039;-76
2023/09/17 04:32:09;;;;;;;25.98;15.15;;;15.00;99.90;;;;;;5094436;28;20028;-76
2023/09/17 04:34:35;;;;;;;21.52;13.60;;;15.10;99.90;;;;;;5094563;28;20020;-78
2023/09/17 04:37:01;;;;;;;23.48;15.48;;;15.00;99.90;;;;;;5094269;28;20036;-80
2023/09/17 04:39:27;;;;;;;19.48;13.27;;;15.10;99.90;;;;;;5095024;28;20032;-82
2023/09/17 04:41:53;;;;;;;20.15;13.20;;;15.10;99.90;;;;;;5094137;28;20047;-79
2023/09/17 04:44:19;;;;;;;20.25;13.50;;;15.00;99.90;;;;;;5094929;28;20074;-81
2023/09/17 04:46:45;;;;;;;19.35;10.98;;;15.00;99.90;;;;;;5094498;28;20028;-82
2023/09/17 04:49:11;;;;;;;19.00;12.60;;;15.10;99.90;;;;;;5094564;28;20079;-82
2023/09/17 04:51:37;;;;;;;16.98;11.38;;;15.00;99.90;;;;;;5076634;28;20374;-85
2023/09/17 04:54:09;;;;;;;17.70;11.60;;;15.00;99.90;;;;;;5095209;28;20477;-82
2023/09/17 04:56:35;;;;;;;14.55;10.25;;;15.00;99.90;;;;;;5095098;28;20032;-80
2023/09/17 04:59:01;;;;;;;21.15;10.80;;;15.00;99.90;;;;;;5094395;28;20054;-84
2023/09/17 05:01:30;;;;;;;13.95;11.20;;;15.00;99.90;;;;;;5094964;28;20028;-84
2023/09/17 05:03:57;;;;;;;14.52;10.27;;;14.90;99.90;;;;;;5094454;28;20024;-85
2023/09/17 05:06:23;;;;;;;13.57;10.18;;;14.90;99.90;;;;;;5094987;28;20032;-82
2023/09/17 05:08:49;;;;;;;16.73;10.52;;;15.00;99.90;;;;;;5075666;28;20024;-80
2023/09/17 05:11:14;;;;;;;14.45;9.93;;;15.00;99.90;;;;;;5094435;28;20027;-78
2023/09/17 05:13:40;;;;;;;13.70;10.57;;;15.00;99.90;;;;;;5093429;28;20069;-79
2023/09/17 05:16:06;;;;;;;13.85;10.45;;;15.00;99.90;;;;;;5093736;28;20024;-77
2023/09/17 05:18:32;;;;;;;20.92;12.38;;;15.00;99.90;;;;;;5093928;28;20043;-80
2023/09/17 05:20:57;;;;;;;18.90;11.05;;;15.00;99.90;;;;;;5093154;28;20980;-78
2023/09/17 05:23:23;;;;;;;18.13;10.25;;;15.00;99.90;;;;;;5075440;28;20043;-77
2023/09/17 05:25:50;;;;;;;14.35;9.38;;;15.00;99.90;;;;;;5074660;28;20296;-77
2023/09/17 05:28:15;;;;;;;15.05;11.25;;;15.00;99.90;;;;;;5093482;28;20050;-79
2023/09/17 05:30:41;;;;;;;14.88;10.07;;;15.00;99.90;;;;;;5092012;28;20465;-80
2023/09/17 05:33:07;;;;;;;14.20;9.88;;;14.90;99.90;;;;;;5092700;28;20062;-78
2023/09/17 05:35:34;;;;;;;14.18;9.65;;;15.00;99.90;;;;;;5074925;28;20060;-78
2023/09/17 05:38:00;;;;;;;17.83;10.57;;;15.00;99.90;;;;;;5092816;28;20051;-77
2023/09/17 05:40:26;;;;;;;13.32;10.70;;;14.90;99.90;;;;;;5092974;28;20026;-77
2023/09/17 05:42:52;;;;;;;14.85;10.27;;;14.90;99.90;;;;;;5092635;28;20028;-77
2023/09/17 05:45:18;;;;;;;15.07;10.00;;;14.90;99.90;;;;;;5093514;28;20419;-76
2023/09/17 05:47:44;;;;;;;16.35;10.73;;;14.80;99.90;;;;;;5092413;28;20039;-77
2023/09/17 05:50:10;;;;;;;16.50;11.43;;;14.80;99.90;;;;;;5093566;28;20048;-76
2023/09/17 05:52:37;;;;;;;15.63;11.45;;;14.80;99.90;;;;;;5093269;28;20032;-76
2023/09/17 05:55:04;;;;;;;21.20;12.15;;;14.80;99.90;;;;;;5092670;28;20036;-77
2023/09/17 05:57:33;;;;;;;19.38;10.75;;;14.90;99.90;;;;;;5074954;28;20036;-77
2023/09/17 05:59:59;;;;;;;17.55;10.77;;;14.80;99.90;;;;;;5092593;28;20213;-79
2023/09/17 06:02:25;;;;;;;18.23;11.10;;;14.90;99.90;;;;;;5093394;28;20020;-78
2023/09/17 06:04:53;;;;;;;19.55;12.82;;;14.90;99.90;;;;;;5074349;28;20031;-78
2023/09/17 06:07:22;;;;;;;21.35;13.27;;;14.90;99.90;;;;;;5092884;28;20085;-77
2023/09/17 06:09:48;;;;;;;18.35;12.80;;;14.90;99.90;;;;;;5073874;28;20062;-77
2023/09/17 06:12:15;;;;;;;21.83;12.55;;;14.90;99.90;;;;;;5092815;28;20078;-77
2023/09/17 06:14:41;;;;;;;20.08;12.73;;;14.90;99.90;;;;;;5092479;28;20041;-77
2023/09/17 06:17:08;;;;;;;18.40;13.02;;;14.90;99.90;;;;;;5091876;28;20054;-77
2023/09/17 06:19:34;;;;;;;20.17;13.75;;;14.90;99.90;;;;;;5091943;28;20027;-77
2023/09/17 06:22:00;;;;;;;21.35;13.80;;;14.90;99.90;;;;;;5091414;28;20032;-77
2023/09/17 06:24:26;;;;;;;22.73;13.32;;;14.90;99.90;;;;;;5092078;28;20358;-77
2023/09/17 06:26:52;;;;;;;25.05;15.43;;;14.90;99.90;;;;;;5092033;28;20024;-77
2023/09/17 06:29:18;;;;;;;23.15;13.93;;;14.90;99.90;;;;;;5092344;28;20024;-77
2023/09/17 06:31:44;;;;;;;19.35;13.73;;;14.80;99.90;;;;;;5091965;28;20020;-79
2023/09/17 06:34:10;;;;;;;26.73;14.35;;;15.00;99.90;;;;;;5091786;28;20468;-77
2023/09/17 06:36:39;;;;;;;26.42;14.45;;;15.00;99.90;;;;;;5073938;28;20123;-77
2023/09/17 06:39:06;;;;;;;25.45;14.70;;;14.80;99.90;;;;;;5091540;28;20031;-77
2023/09/17 06:41:32;;;;;;;22.40;14.90;;;14.90;99.90;;;;;;5091809;28;20207;-76
2023/09/17 06:43:58;;;;;;;29.98;15.55;;;14.90;99.90;;;;;;5091006;28;20100;-76
2023/09/17 06:46:25;;;;;;;29.00;15.80;;;14.90;99.90;;;;;;5092084;28;20158;-77
2023/09/17 06:48:51;;;;;;;23.45;15.50;;;14.90;99.90;;;;;;5072981;28;20054;-77
2023/09/17 06:51:17;;;;;;;33.95;16.60;;;14.80;99.90;;;;;;5091999;28;20138;-75
2023/09/17 06:53:43;;;;;;;23.35;15.73;;;14.80;99.90;;;;;;5091494;28;20521;-76
2023/09/17 06:56:09;;;;;;;29.05;16.02;;;14.80;99.90;;;;;;5091061;28;20062;-77
2023/09/17 06:58:35;;;;;;;31.05;15.70;;;14.80;99.90;;;;;;5073879;28;20035;-76
2023/09/17 07:01:01;;;;;;;27.85;15.45;;;14.80;99.90;;;;;;5091616;28;20036;-76
2023/09/17 07:03:27;;;;;;;27.73;16.17;;;14.80;99.90;;;;;;5091182;28;20024;-76
2023/09/17 07:05:52;;;;;;;28.70;15.60;;;14.70;99.90;;;;;;5090878;28;20020;-76
2023/09/17 07:08:19;;;;;;;33.35;17.45;;;14.80;99.90;;;;;;5091467;28;20036;-77
2023/09/17 07:10:45;;;;;;;27.17;16.98;;;14.80;99.90;;;;;;5091643;28;20032;-77
2023/09/17 07:13:11;;;;;;;28.55;16.15;;;14.80;99.90;;;;;;5090632;28;20107;-78
2023/09/17 07:15:37;;;;;;;25.65;15.85;;;14.80;99.90;;;;;;5091045;28;20438;-77
2023/09/17 07:18:03;;;;;;;21.20;15.85;;;14.70;99.90;;;;;;5090736;28;20054;-76
2023/09/17 07:20:28;;;;;;;30.40;16.73;;;14.70;99.90;;;;;;5091069;28;20095;-76
2023/09/17 07:22:54;;;;;;;28.38;16.00;;;14.70;99.90;;;;;;5090554;28;20056;-77
2023/09/17 07:25:20;;;;;;;24.90;15.85;;;14.60;99.90;;;;;;5090827;28;20114;-76
2023/09/17 07:27:46;;;;;;;23.35;15.32;;;14.70;99.90;;;;;;5091295;28;20357;-76
2023/09/17 07:30:12;;;;;;;23.48;14.80;;;14.70;99.90;;;;;;5090466;28;20074;-75
2023/09/17 07:32:38;;;;;;;28.95;16.13;;;14.80;99.90;;;;;;5090848;28;20434;-76
2023/09/17 07:35:05;;;;;;;27.58;17.38;;;14.80;99.90;;;;;;5090006;28;20024;-76
2023/09/17 07:37:30;;;;;;;25.10;15.63;;;14.80;99.90;;;;;;5090616;28;20118;-76
2023/09/17 07:40:01;;;;;;;25.27;16.85;;;14.80;99.90;;;;;;5071938;28;20110;-77
2023/09/17 07:42:26;;;;;;;25.38;14.90;;;14.80;99.90;;;;;;5090778;28;20473;-77
2023/09/17 07:44:52;;;;;;;21.95;15.38;;;14.80;99.90;;;;;;5089715;28;20115;-77
2023/09/17 07:47:18;;;;;;;20.27;14.30;;;14.90;99.90;;;;;;5072665;28;20496;-76
2023/09/17 07:49:45;;;;;;;24.80;14.82;;;14.90;99.90;;;;;;5090186;28;20046;-77
2023/09/17 07:52:12;;;;;;;22.77;14.00;;;14.90;99.90;;;;;;5090232;28;20058;-77
2023/09/17 07:54:42;;;;;;;27.05;14.73;;;14.80;99.90;;;;;;5089948;28;20107;-75
2023/09/17 07:57:12;;;;;;;24.85;16.02;;;14.90;99.90;;;;;;5090210;28;20036;-75
2023/09/17 07:59:38;;;;;;;28.35;16.67;;;14.90;99.90;;;;;;5090601;28;20020;-75
2023/09/17 08:02:04;;;;;;;23.42;15.38;;;14.90;99.90;;;;;;5089861;28;20531;-76
2023/09/17 08:04:30;;;;;;;21.35;13.77;;;15.00;99.90;;;;;;5090923;28;20036;-76
2023/09/17 08:06:59;;;;;;;18.98;14.15;;;15.10;99.90;;;;;;5089845;28;20042;-76
2023/09/17 08:09:25;;;;;;;23.20;13.55;;;15.10;99.90;;;;;;5090488;28;20163;-76
2023/09/17 08:11:51;;;;;;;23.52;13.88;;;15.10;99.90;;;;;;5090509;28;20043;-78
2023/09/17 08:14:17;;;;;;;21.10;13.07;;;15.20;99.90;;;;;;5090284;28;20039;-76
2023/09/17 08:16:43;;;;;;;20.63;12.93;;;15.30;99.90;;;;;;5090478;28;20028;-76
2023/09/17 08:19:10;;;;;;;19.13;12.20;;;15.40;99.90;;;;;;5090231;28;20028;-76
2023/09/17 08:21:35;;;;;;;18.13;12.88;;;15.50;99.90;;;;;;5071905;28;20035;-76
2023/09/17 08:24:01;;;;;;;15.43;12.45;;;15.60;99.90;;;;;;5090085;28;20028;-77
2023/09/17 08:26:30;;;;;;;14.27;10.48;;;15.70;99.90;;;;;;5090272;28;20106;-77
2023/09/17 08:29:00;;;;;;;20.48;12.27;;;15.80;99.90;;;;;;5089242;28;20425;-76
2023/09/17 08:31:27;;;;;;;15.85;10.27;;;15.80;99.90;;;;;;5089990;28;20043;-75
2023/09/17 08:33:53;;;;;;;15.88;9.63;;;15.90;99.90;;;;;;5089614;28;20020;-77
2023/09/17 08:36:23;;;;;;;17.00;9.95;;;16.00;99.90;;;;;;5072050;28;20505;-76
2023/09/17 08:38:49;;;;;;;14.25;9.18;;;15.90;99.90;;;;;;5090501;28;20107;-76
2023/09/17 08:41:19;;;;;;;14.57;9.98;;;16.00;99.90;;;;;;5089557;28;20028;-75
2023/09/17 08:43:46;;;;;;;12.70;9.05;;;16.00;99.90;;;;;;5090241;28;20055;-76
2023/09/17 08:46:12;;;;;;;16.00;9.70;;;15.90;99.90;;;;;;5071259;28;20381;-75
2023/09/17 08:48:38;;;;;;;15.80;10.20;;;15.80;99.90;;;;;;5090308;28;20050;-75
2023/09/17 08:51:08;;;;;;;20.80;10.70;;;15.70;99.90;;;;;;5090031;28;20097;-76
2023/09/17 08:53:40;;;;;;;17.25;11.73;;;15.70;99.90;;;;;;5090737;28;20396;-77
2023/09/17 08:56:09;;;;;;;19.25;11.40;;;15.70;99.90;;;;;;5089575;28;20476;-77
2023/09/17 08:58:43;;;;;;;17.63;11.25;;;15.60;99.90;;;;;;5090238;28;20063;-77
2023/09/17 09:01:13;;;;;;;16.38;11.57;;;15.60;99.90;;;;;;5089884;28;20070;-77
2023/09/17 09:03:40;;;;;;;20.05;11.15;;;15.70;99.90;;;;;;5090488;28;20427;-77
2023/09/17 09:06:09;;;;;;;22.83;12.73;;;15.70;99.90;;;;;;5091278;28;20126;-77
2023/09/17 09:08:36;;;;;;;25.10;14.00;;;15.70;99.90;;;;;;5093774;28;20032;-77
2023/09/17 09:11:02;;;;;;;15.60;11.93;;;15.60;99.90;;;;;;5075438;28;20036;-78
2023/09/17 09:13:28;;;;;;;19.50;12.88;;;15.70;99.90;;;;;;5093737;28;20110;-77
2023/09/17 09:15:55;;;;;;;19.30;13.45;;;15.80;99.90;;;;;;5093635;28;20464;-77
2023/09/17 09:18:24;;;;;;;17.90;12.57;;;15.80;99.90;;;;;;5093221;28;20375;-77
2023/09/17 09:20:50;;;;;;;20.10;12.25;;;16.00;99.90;;;;;;5093278;28;20054;-77
2023/09/17 09:23:16;;;;;;;17.80;11.60;;;15.90;99.90;;;;;;5092992;28;20434;-77
2023/09/17 09:25:42;;;;;;;14.48;10.55;;;16.00;99.90;;;;;;5075706;28;20119;-75
2023/09/17 09:28:07;;;;;;;21.13;12.60;;;16.10;99.90;;;;;;5093033;28;20119;-76
2023/09/17 09:30:35;;;;;;;17.38;13.10;;;16.10;99.90;;;;;;5093726;28;20043;-76
2023/09/17 09:33:01;;;;;;;14.63;10.20;;;16.10;99.90;;;;;;5074469;28;20028;-77
2023/09/17 09:35:27;;;;;;;17.63;11.98;;;16.10;99.90;;;;;;5093201;28;20119;-77
2023/09/17 09:37:53;;;;;;;14.48;11.48;;;16.20;99.90;;;;;;5093327;28;20377;-76
2023/09/17 09:40:19;;;;;;;18.75;13.10;;;16.20;99.90;;;;;;5093247;28;20118;-75
2023/09/17 09:42:46;;;;;;;21.70;11.65;;;16.10;99.90;;;;;;5093222;28;20043;-76
2023/09/17 09:45:18;;;;;;;13.85;11.55;;;16.00;99.90;;;;;;5092447;28;20038;-76
2023/09/17 09:47:49;;;;;;;17.88;12.23;;;16.10;99.90;;;;;;5093170;28;20043;-76
2023/09/17 09:50:26;;;;;;;13.30;11.10;;;16.00;99.90;;;;;;5092303;28;20044;-76
2023/09/17 09:52:53;;;;;;;17.38;12.75;;;16.10;99.90;;;;;;5092799;28;20465;-76
2023/09/17 09:55:27;;;;;;;13.63;11.27;;;16.10;99.90;;;;;;5074290;28;20640;-76
2023/09/17 09:57:53;;;;;;;16.55;11.85;;;16.10;99.90;;;;;;5093111;28;20032;-76
2023/09/17 10:00:29;;;;;;;14.15;10.85;;;16.10;99.90;;;;;;5092106;28;20044;-76
2023/09/17 10:02:55;;;;;;;15.27;11.20;;;16.10;99.90;;;;;;5092900;28;20024;-76
2023/09/17 10:05:42;;;;;;;15.80;10.70;;;16.00;99.90;;;;;;5092244;28;20016;-76
2023/09/17 10:08:10;;;;;;;14.85;11.45;;;16.00;99.90;;;;;;5092158;28;20036;-77
2023/09/17 10:10:40;;;;;;;17.30;11.93;;;16.00;99.90;;;;;;5093151;28;20020;-77
2023/09/17 10:13:10;;;;;;;15.80;12.00;;;15.90;99.90;;;;;;5092073;28;20067;-76
2023/09/17 10:15:39;;;;;;;17.48;12.02;;;16.00;99.90;;;;;;5092627;28;20031;-77
2023/09/17 10:18:10;;;;;;;16.88;12.38;;;16.00;99.90;;;;;;5090856;28;20441;-77
2023/09/17 10:20:37;;;;;;;17.35;12.15;;;16.00;99.90;;;;;;5092287;28;20028;-75
2023/09/17 10:23:05;;;;;;;17.50;12.45;;;16.00;99.90;;;;;;5091523;28;20031;-77
2023/09/17 10:25:32;;;;;;;15.55;12.05;;;16.00;99.90;;;;;;5092520;28;20073;-76
2023/09/17 10:28:00;;;;;;;18.58;12.48;;;16.00;99.90;;;;;;5092210;28;20233;-75
2023/09/17 10:30:26;;;;;;;19.17;12.45;;;16.00;99.90;;;;;;5092126;28;20032;-76
2023/09/17 10:32:53;;;;;;;18.27;12.30;;;16.10;99.90;;;;;;5091658;28;20031;-76
2023/09/17 10:35:19;;;;;;;15.95;11.63;;;16.10;99.90;;;;;;5091396;28;20671;-75
2023/09/17 10:37:47;;;;;;;15.65;11.80;;;16.10;99.90;;;;;;5092371;28;20036;-75
2023/09/17 10:40:13;;;;;;;16.08;12.05;;;16.10;99.90;;;;;;5091598;28;20437;-76
2023/09/17 10:42:39;;;;;;;13.38;11.88;;;16.00;99.90;;;;;;5091960;28;20081;-76
2023/09/17 10:45:10;;;;;;;15.00;12.52;;;16.00;99.90;;;;;;5073204;28;20039;-77
2023/09/17 10:47:41;;;;;;;21.77;12.45;;;16.00;99.90;;;;;;5091839;28;20036;-76
2023/09/17 10:50:08;;;;;;;17.67;12.13;;;15.90;99.90;;;;;;5091232;28;20501;-76
2023/09/17 10:52:36;;;;;;;16.67;13.25;;;15.90;99.90;;;;;;5091906;28;20030;-76
2023/09/17 10:55:06;;;;;;;13.15;11.68;;;15.80;99.90;;;;;;5091449;28;20020;-77
2023/09/17 10:57:40;;;;;;;17.52;12.55;;;15.80;99.90;;;;;;5091814;28;20032;-77
2023/09/17 11:00:14;;;;;;;16.85;12.88;;;15.70;99.90;;;;;;5072694;28;20024;-77
2023/09/17 11:02:45;;;;;;;15.73;12.25;;;15.70;99.90;;;;;;5091623;28;20070;-76
2023/09/17 11:05:14;;;;;;;17.67;13.60;;;15.60;99.90;;;;;;5090756;28;20477;-76
2023/09/17 11:07:41;;;;;;;15.43;13.23;;;15.60;99.90;;;;;;5091277;28;20036;-76
2023/09/17 11:10:10;;;;;;;19.77;14.20;;;15.60;99.90;;;;;;5072668;28;20028;-76
2023/09/17 11:12:36;;;;;;;16.30;13.02;;;15.60;99.90;;;;;;5091406;28;20028;-77
2023/09/17 11:15:02;;;;;;;20.05;15.35;;;15.60;99.90;;;;;;5091489;28;20374;-78
2023/09/17 11:17:32;;;;;;;18.17;15.13;;;15.60;99.90;;;;;;5090774;28;20085;-77
2023/09/17 11:19:59;;;;;;;18.23;14.80;;;15.70;99.90;;;;;;5091324;28;20024;-76
2023/09/17 11:22:27;;;;;;;19.13;15.77;;;15.70;99.90;;;;;;5090854;28;20047;-76
2023/09/17 11:24:53;;;;;;;20.02;15.23;;;15.70;99.90;;;;;;5091440;28;20020;-78
2023/09/17 11:27:51;;;;;;;21.65;15.25;;;15.70;99.90;;;;;;5092169;28;20496;-80
2023/09/17 11:30:24;;;;;;;23.38;16.42;;;15.60;99.90;;;;;;5094751;28;20101;-80
2023/09/17 11:32:52;;;;;;;21.98;15.68;;;15.60;99.90;;;;;;5099632;28;20035;-79
2023/09/17 11:35:21;;;;;;;24.20;17.25;;;15.60;99.90;;;;;;5100170;28;20032;-81
2023/09/17 11:37:47;;;;;;;26.38;18.15;;;15.70;99.90;;;;;;5097592;28;20052;-79
2023/09/17 11:40:14;;;;;;;24.98;18.27;;;15.60;99.90;;;;;;5091946;28;20054;-78
2023/09/17 11:42:40;;;;;;;28.20;17.40;;;15.60;99.90;;;;;;5092309;28;20127;-79
2023/09/17 11:45:10;;;;;;;25.95;18.35;;;15.60;99.90;;;;;;5091269;28;20078;-81
2023/09/17 11:47:36;;;;;;;26.77;19.77;;;15.50;99.90;;;;;;5073717;28;20477;-82
2023/09/17 11:50:06;;;;;;;25.98;19.35;;;15.50;99.90;;;;;;5092225;28;20089;-85
2023/09/17 11:52:41;;;;;;;30.58;21.10;;;15.60;99.90;;;;;;5092251;28;20032;-86
2023/09/17 11:55:11;;;;;;;33.10;22.67;;;15.60;99.90;;;;;;5074246;28;20035;-88
2023/09/17 11:57:40;;;;;;;30.15;21.40;;;15.60;99.90;;;;;;5075350;28;20032;-86
2023/09/17 12:00:12;;;;;;;30.73;22.75;;;15.60;99.90;;;;;;5092580;28;20477;-88
2023/09/17 12:02:44;;;;;;;31.40;21.83;;;15.60;99.90;;;;;;5059280;28;20093;-89
2023/09/17 12:05:10;;;;;;;28.20;21.00;;;15.70;99.90;;;;;;5073899;28;20032;-84
2023/09/17 12:07:36;;;;;;;30.05;21.88;;;15.70;99.90;;;;;;5074369;28;20086;-85
2023/09/17 12:10:05;;;;;;;24.83;19.92;;;15.60;99.90;;;;;;5091132;28;20130;-80
2023/09/17 12:12:35;;;;;;;27.58;20.23;;;15.60;99.90;;;;;;5090576;28;20028;-77
2023/09/17 12:15:04;;;;;;;30.88;23.20;;;15.70;99.90;;;;;;5090967;28;20465;-76
2023/09/17 12:17:33;;;;;;;33.72;22.35;;;15.80;99.90;;;;;;5090448;28;20383;-76
2023/09/17 12:20:12;;;;;;;28.65;19.98;;;15.70;99.90;;;;;;5090912;28;20414;-75
2023/09/17 12:22:39;;;;;;;31.25;21.92;;;15.60;99.90;;;;;;5091114;28;20047;-76
2023/09/17 12:25:13;;;;;;;26.67;19.40;;;15.70;99.90;;;;;;5091165;28;20028;-77
2023/09/17 12:27:46;;;;;;;40.92;22.02;;;15.70;99.90;;;;;;5091155;28;20380;-78
2023/09/17 12:30:13;;;;;;;30.75;21.45;;;15.80;99.90;;;;;;5090385;28;20059;-78